Time;durP1;ratioP1;P1;durP2;ratioP2;P2;SDS_P1;SDS_P2;PMS_P1;PMS_P2;Temp;Humidity;BMP_temperature;BMP_pressure;BME280_temperature;BME280_humidity;BME280_pressure;Samples;Min_cycle;Max_cycle;Signal;HPM_P1;HPM_P2
2022/10/29 00:01:02;;;;;;;10.83;7.57;;;;;;;;;;5070612;28;20477;-77
2022/10/29 00:03:31;;;;;;;12.53;8.13;;;;;;;;;;5069559;28;20443;-78
2022/10/29 00:05:59;;;;;;;12.50;8.93;;;;;;;;;;5070346;28;20452;-78
2022/10/29 00:08:26;;;;;;;9.33;8.03;;;;;;;;;;5071245;28;20444;-78
2022/10/29 00:10:53;;;;;;;10.90;8.37;;;;;;;;;;5071053;28;20452;-78
2022/10/29 00:13:21;;;;;;;12.50;7.83;;;;;;;;;;5069404;28;20457;-78
2022/10/29 00:15:48;;;;;;;15.33;7.47;;;;;;;;;;5068538;28;20448;-77
2022/10/29 00:18:15;;;;;;;12.20;7.90;;;;;;;;;;5068597;28;20833;-79
2022/10/29 00:20:43;;;;;;;9.40;7.80;;;;;;;;;;5069590;28;20481;-78
2022/10/29 00:23:10;;;;;;;12.70;8.23;;;;;;;;;;5068177;28;20464;-76
2022/10/29 00:25:37;;;;;;;11.10;7.93;;;;;;;;;;5068869;28;20448;-76
2022/10/29 00:28:04;;;;;;;11.63;7.80;;;;;;;;;;5068642;28;20445;-78
2022/10/29 00:30:31;;;;;;;14.07;8.70;;;;;;;;;;5068769;28;20456;-78
2022/10/29 00:32:58;;;;;;;17.33;7.90;;;;;;;;;;5067143;28;20484;-78
2022/10/29 00:35:26;;;;;;;15.80;7.80;;;;;;;;;;5067562;28;20466;-77
2022/10/29 00:37:54;;;;;;;14.73;8.83;;;;;;;;;;5068162;28;20481;-78
2022/10/29 00:40:21;;;;;;;11.50;8.00;;;;;;;;;;5068498;28;20479;-78
2022/10/29 00:42:48;;;;;;;9.50;7.73;;;;;;;;;;5067411;28;20468;-78
2022/10/29 00:45:19;;;;;;;12.13;9.00;;;;;;;;;;5067743;28;20979;-78
2022/10/29 00:47:49;;;;;;;12.73;9.17;;;;;;;;;;5068152;28;20437;-78
2022/10/29 00:50:16;;;;;;;11.77;8.03;;;;;;;;;;5071105;28;20436;-78
2022/10/29 00:52:46;;;;;;;14.63;8.33;;;;;;;;;;5070835;28;20461;-77
2022/10/29 00:55:16;;;;;;;10.87;7.50;;;;;;;;;;5071554;28;20452;-77
2022/10/29 00:57:47;;;;;;;11.83;7.93;;;;;;;;;;5071139;28;20474;-77
2022/10/29 01:00:14;;;;;;;10.53;9.07;;;;;;;;;;5072348;28;20468;-78
2022/10/29 01:02:42;;;;;;;13.53;8.40;;;;;;;;;;5070679;28;20498;-77
2022/10/29 01:05:10;;;;;;;14.13;9.53;;;;;;;;;;5070772;28;20447;-78
2022/10/29 01:07:37;;;;;;;13.40;8.17;;;;;;;;;;5071568;28;20432;-77
2022/10/29 01:10:05;;;;;;;10.57;8.60;;;;;;;;;;5071014;28;20451;-79
2022/10/29 01:12:47;;;;;;;13.87;8.50;;;;;;;;;;5063048;28;20465;-77
2022/10/29 01:15:20;;;;;;;12.70;8.87;;;;;;;;;;5047592;28;20453;-77
2022/10/29 01:17:54;;;;;;;14.77;8.17;;;;;;;;;;5051308;28;20433;-79
2022/10/29 01:20:32;;;;;;;10.57;8.07;;;;;;;;;;5051108;28;20496;-77
2022/10/29 01:23:06;;;;;;;9.17;8.10;;;;;;;;;;5050093;28;20488;-77
2022/10/29 01:25:41;;;;;;;11.07;8.30;;;;;;;;;;5051031;28;20848;-77
2022/10/29 01:28:17;;;;;;;11.10;7.90;;;;;;;;;;5050779;28;20456;-77
2022/10/29 01:30:50;;;;;;;12.53;8.73;;;;;;;;;;5050606;28;20445;-77
2022/10/29 01:33:19;;;;;;;12.97;8.83;;;;;;;;;;5049762;28;20481;-77
2022/10/29 01:35:50;;;;;;;12.33;8.90;;;;;;;;;;5050372;28;20453;-77
2022/10/29 01:38:23;;;;;;;10.80;8.37;;;;;;;;;;5050941;28;20437;-77
2022/10/29 01:40:56;;;;;;;17.00;8.20;;;;;;;;;;5050415;28;20468;-77
2022/10/29 01:43:25;;;;;;;13.13;7.87;;;;;;;;;;5049974;28;20451;-77
2022/10/29 01:45:57;;;;;;;13.23;8.17;;;;;;;;;;5050299;28;20457;-78
2022/10/29 01:48:26;;;;;;;11.50;8.50;;;;;;;;;;5050498;28;20445;-77
2022/10/29 01:50:55;;;;;;;14.50;8.63;;;;;;;;;;5050229;28;20449;-78
2022/10/29 01:53:23;;;;;;;10.03;8.10;;;;;;;;;;5050290;28;20460;-78
2022/10/29 01:55:50;;;;;;;11.97;9.10;;;;;;;;;;5050541;28;20442;-78
2022/10/29 01:58:18;;;;;;;10.70;8.10;;;;;;;;;;5051512;28;20445;-78
2022/10/29 02:00:49;;;;;;;14.90;7.90;;;;;;;;;;5049617;28;20481;-78
2022/10/29 02:03:23;;;;;;;9.97;7.77;;;;;;;;;;5049486;28;20461;-77
2022/10/29 02:05:54;;;;;;;15.03;8.27;;;;;;;;;;5050027;28;20442;-76
2022/10/29 02:08:26;;;;;;;10.80;8.10;;;;;;;;;;5052644;28;20429;-76
2022/10/29 02:10:56;;;;;;;13.30;8.70;;;;;;;;;;5050829;28;20429;-77
2022/10/29 02:13:29;;;;;;;14.07;8.37;;;;;;;;;;5049553;28;20429;-77
2022/10/29 02:15:57;;;;;;;14.50;8.97;;;;;;;;;;5050063;28;20421;-76
2022/10/29 02:18:26;;;;;;;9.87;8.10;;;;;;;;;;5049994;28;21201;-77
2022/10/29 02:20:53;;;;;;;17.20;9.17;;;;;;;;;;5049739;28;20473;-77
2022/10/29 02:23:20;;;;;;;16.60;8.30;;;;;;;;;;5049210;28;20473;-77
2022/10/29 02:25:47;;;;;;;12.60;8.13;;;;;;;;;;5050003;28;20450;-76
2022/10/29 02:28:14;;;;;;;9.00;7.90;;;;;;;;;;5051325;28;20525;-76
2022/10/29 02:30:41;;;;;;;12.17;9.13;;;;;;;;;;5052044;28;20943;-76
2022/10/29 02:33:08;;;;;;;10.63;8.60;;;;;;;;;;5050683;28;20519;-77
2022/10/29 02:35:36;;;;;;;9.43;8.23;;;;;;;;;;5052057;28;20438;-76
2022/10/29 02:38:03;;;;;;;15.43;8.50;;;;;;;;;;5051416;28;20477;-76
2022/10/29 02:40:30;;;;;;;11.70;7.93;;;;;;;;;;5051476;28;20488;-76
2022/10/29 02:42:57;;;;;;;9.43;8.53;;;;;;;;;;5051185;28;21051;-77
2022/10/29 02:45:24;;;;;;;9.10;8.20;;;;;;;;;;5051370;28;20456;-77
2022/10/29 02:47:51;;;;;;;13.50;8.90;;;;;;;;;;5051399;28;20453;-76
2022/10/29 02:50:18;;;;;;;9.90;8.97;;;;;;;;;;5051469;28;20452;-76
2022/10/29 02:52:47;;;;;;;11.50;8.40;;;;;;;;;;5050601;28;20466;-76
2022/10/29 02:55:14;;;;;;;10.27;7.67;;;;;;;;;;5051020;28;20524;-77
2022/10/29 02:57:43;;;;;;;9.90;8.73;;;;;;;;;;5051249;28;20444;-77
2022/10/29 03:00:11;;;;;;;11.70;7.90;;;;;;;;;;5051231;28;20445;-77
2022/10/29 03:02:38;;;;;;;17.03;8.47;;;;;;;;;;5050586;28;20849;-76
2022/10/29 03:05:05;;;;;;;9.40;7.87;;;;;;;;;;5050975;28;20449;-76
2022/10/29 03:07:35;;;;;;;12.40;8.87;;;;;;;;;;5051277;28;20457;-76
2022/10/29 03:10:04;;;;;;;9.40;8.50;;;;;;;;;;5051195;28;20564;-76
2022/10/29 03:12:31;;;;;;;11.67;8.27;;;;;;;;;;5049750;28;20469;-77
2022/10/29 03:14:58;;;;;;;11.67;8.40;;;;;;;;;;5051075;28;20883;-76
2022/10/29 03:17:25;;;;;;;13.57;8.97;;;;;;;;;;5051243;28;20520;-77
2022/10/29 03:19:52;;;;;;;9.63;8.13;;;;;;;;;;5051081;28;20461;-77
2022/10/29 03:22:19;;;;;;;10.30;7.23;;;;;;;;;;5050974;28;20493;-76
2022/10/29 03:24:46;;;;;;;11.20;8.70;;;;;;;;;;5050786;28;20448;-77
2022/10/29 03:27:14;;;;;;;12.90;8.27;;;;;;;;;;5051787;28;20441;-76
2022/10/29 03:29:41;;;;;;;17.60;8.47;;;;;;;;;;5051071;28;20446;-76
2022/10/29 03:32:09;;;;;;;11.23;8.50;;;;;;;;;;5050530;28;20489;-76
2022/10/29 03:34:36;;;;;;;9.17;8.03;;;;;;;;;;5050445;28;20421;-77
2022/10/29 03:37:03;;;;;;;10.13;8.50;;;;;;;;;;5050982;28;20456;-76
2022/10/29 03:39:30;;;;;;;9.77;8.10;;;;;;;;;;5051767;28;20445;-77
2022/10/29 03:41:57;;;;;;;11.43;8.40;;;;;;;;;;5051742;28;20481;-77
2022/10/29 03:44:25;;;;;;;8.80;8.00;;;;;;;;;;5051050;28;20441;-77
2022/10/29 03:46:52;;;;;;;11.90;8.33;;;;;;;;;;5051457;28;20437;-77
2022/10/29 03:49:19;;;;;;;15.60;8.27;;;;;;;;;;5051497;28;20450;-77
2022/10/29 03:51:46;;;;;;;13.47;8.70;;;;;;;;;;5051259;28;20485;-77
2022/10/29 03:54:13;;;;;;;10.40;8.63;;;;;;;;;;5050811;28;20537;-77
2022/10/29 03:56:40;;;;;;;13.70;8.03;;;;;;;;;;5051150;28;20945;-76
2022/10/29 03:59:08;;;;;;;15.60;9.17;;;;;;;;;;5050791;28;20448;-76
2022/10/29 04:01:36;;;;;;;14.30;7.70;;;;;;;;;;5050343;28;20920;-78
2022/10/29 04:04:03;;;;;;;17.03;8.00;;;;;;;;;;5055533;28;20455;-78
2022/10/29 04:06:30;;;;;;;12.20;9.00;;;;;;;;;;5053247;28;20468;-79
2022/10/29 04:08:57;;;;;;;12.20;8.07;;;;;;;;;;5069300;28;20452;-78
2022/10/29 04:11:24;;;;;;;12.20;8.70;;;;;;;;;;5066694;28;20461;-78
2022/10/29 04:13:52;;;;;;;12.57;8.80;;;;;;;;;;5059877;28;20454;-77
2022/10/29 04:16:19;;;;;;;13.20;8.37;;;;;;;;;;5061950;28;20494;-77
2022/10/29 04:18:48;;;;;;;12.80;8.50;;;;;;;;;;5070492;28;20443;-77
2022/10/29 04:21:15;;;;;;;14.90;8.47;;;;;;;;;;5070106;28;20480;-78
2022/10/29 04:23:42;;;;;;;10.23;7.30;;;;;;;;;;5072303;28;20447;-77
2022/10/29 04:26:09;;;;;;;12.60;8.17;;;;;;;;;;5073898;28;20453;-77
2022/10/29 04:28:37;;;;;;;13.80;7.30;;;;;;;;;;5073971;28;20441;-77
2022/10/29 04:31:04;;;;;;;11.50;8.03;;;;;;;;;;5074068;28;20425;-77
2022/10/29 04:33:31;;;;;;;10.87;8.30;;;;;;;;;;5073373;28;20452;-77
2022/10/29 04:36:00;;;;;;;12.17;7.63;;;;;;;;;;5074238;28;20455;-77
2022/10/29 04:38:27;;;;;;;8.50;7.30;;;;;;;;;;5073786;28;20451;-78
2022/10/29 04:40:54;;;;;;;11.67;8.37;;;;;;;;;;5073700;28;20443;-77
2022/10/29 04:43:21;;;;;;;9.33;8.00;;;;;;;;;;5074154;28;20928;-77
2022/10/29 04:45:51;;;;;;;9.60;8.07;;;;;;;;;;5077082;28;20440;-76
2022/10/29 04:48:18;;;;;;;13.27;8.00;;;;;;;;;;5075920;28;20448;-77
2022/10/29 04:50:46;;;;;;;15.57;7.37;;;;;;;;;;5074890;28;20448;-77
2022/10/29 04:53:14;;;;;;;8.13;7.30;;;;;;;;;;5073987;28;20980;-76
2022/10/29 04:55:41;;;;;;;9.00;7.47;;;;;;;;;;5075282;28;20958;-77
2022/10/29 04:58:12;;;;;;;12.93;8.20;;;;;;;;;;5074252;28;20449;-78
2022/10/29 05:00:39;;;;;;;13.03;7.80;;;;;;;;;;5073838;28;20448;-77
2022/10/29 05:03:06;;;;;;;12.97;8.17;;;;;;;;;;5072663;28;20481;-76
2022/10/29 05:05:33;;;;;;;12.30;9.23;;;;;;;;;;5073483;28;20793;-77
2022/10/29 05:08:01;;;;;;;9.90;8.20;;;;;;;;;;5073252;28;20460;-77
2022/10/29 05:10:31;;;;;;;13.47;8.37;;;;;;;;;;5073932;28;20440;-77
2022/10/29 05:12:59;;;;;;;9.87;8.37;;;;;;;;;;5061797;28;20454;-77
2022/10/29 05:15:26;;;;;;;10.53;8.27;;;;;;;;;;5053847;28;20452;-78
2022/10/29 05:17:54;;;;;;;10.03;8.73;;;;;;;;;;5053884;28;20446;-76
2022/10/29 05:20:21;;;;;;;10.30;8.00;;;;;;;;;;5053670;28;20456;-76
2022/10/29 05:22:48;;;;;;;10.97;8.83;;;;;;;;;;5052441;28;20488;-76
2022/10/29 05:25:15;;;;;;;10.40;7.80;;;;;;;;;;5054905;28;20448;-76
2022/10/29 05:27:43;;;;;;;8.77;7.33;;;;;;;;;;5054555;28;20441;-77
2022/10/29 05:30:11;;;;;;;8.50;7.60;;;;;;;;;;5054239;28;20472;-76
2022/10/29 05:32:38;;;;;;;11.50;7.77;;;;;;;;;;5071368;28;20468;-79
2022/10/29 05:35:05;;;;;;;9.97;7.60;;;;;;;;;;5076793;28;20425;-77
2022/10/29 05:37:32;;;;;;;11.60;8.97;;;;;;;;;;5078190;28;20442;-77
2022/10/29 05:39:59;;;;;;;9.87;7.37;;;;;;;;;;5078128;28;20438;-78
2022/10/29 05:42:26;;;;;;;13.93;8.40;;;;;;;;;;5074632;28;20868;-76
2022/10/29 05:44:54;;;;;;;11.77;7.80;;;;;;;;;;5054574;28;20441;-76
2022/10/29 05:47:21;;;;;;;8.37;7.63;;;;;;;;;;5054204;28;20449;-77
2022/10/29 05:49:48;;;;;;;16.00;8.90;;;;;;;;;;5054317;28;20452;-78
2022/10/29 05:52:15;;;;;;;14.70;11.30;;;;;;;;;;5053625;28;20473;-77
2022/10/29 05:54:43;;;;;;;16.07;11.60;;;;;;;;;;5052636;28;20453;-79
2022/10/29 05:57:10;;;;;;;14.17;9.17;;;;;;;;;;5053003;28;20901;-76
2022/10/29 05:59:37;;;;;;;9.93;8.50;;;;;;;;;;5052257;28;20446;-76
2022/10/29 06:02:06;;;;;;;12.70;9.50;;;;;;;;;;5052668;28;20492;-78
2022/10/29 06:04:34;;;;;;;12.40;8.87;;;;;;;;;;5051685;28;20456;-76
2022/10/29 06:07:01;;;;;;;10.60;8.20;;;;;;;;;;5052273;28;20441;-76
2022/10/29 06:09:28;;;;;;;17.23;8.70;;;;;;;;;;5052400;28;20460;-77
2022/10/29 06:11:55;;;;;;;10.30;8.47;;;;;;;;;;5052128;28;20462;-77
2022/10/29 06:14:22;;;;;;;15.77;9.43;;;;;;;;;;5051267;28;20450;-76
2022/10/29 06:16:50;;;;;;;11.40;8.50;;;;;;;;;;5052029;28;20452;-77
2022/10/29 06:19:18;;;;;;;12.87;9.17;;;;;;;;;;5052340;28;20456;-77
2022/10/29 06:21:45;;;;;;;10.27;9.27;;;;;;;;;;5051561;28;20517;-77
2022/10/29 06:24:12;;;;;;;11.33;8.60;;;;;;;;;;5051176;28;20441;-77
2022/10/29 06:26:39;;;;;;;16.97;9.90;;;;;;;;;;5052630;28;20560;-78
2022/10/29 06:29:07;;;;;;;9.33;8.30;;;;;;;;;;5061589;28;20444;-78
2022/10/29 06:31:34;;;;;;;12.03;9.80;;;;;;;;;;5070850;28;20479;-78
2022/10/29 06:34:01;;;;;;;13.23;9.93;;;;;;;;;;5071347;28;20480;-77
2022/10/29 06:36:29;;;;;;;10.00;9.00;;;;;;;;;;5064992;28;20453;-77
2022/10/29 06:38:56;;;;;;;11.73;8.83;;;;;;;;;;5071494;28;20443;-77
2022/10/29 06:41:26;;;;;;;12.10;8.30;;;;;;;;;;5071553;28;20464;-77
2022/10/29 06:43:53;;;;;;;9.20;8.30;;;;;;;;;;5070642;28;20429;-77
2022/10/29 06:46:20;;;;;;;12.30;9.20;;;;;;;;;;5071362;28;20526;-76
2022/10/29 06:48:47;;;;;;;12.67;9.90;;;;;;;;;;5071632;28;20463;-78
2022/10/29 06:51:14;;;;;;;13.23;8.83;;;;;;;;;;5071385;28;20448;-76
2022/10/29 06:53:42;;;;;;;13.20;9.40;;;;;;;;;;5070872;28;20443;-79
2022/10/29 06:56:09;;;;;;;11.63;8.40;;;;;;;;;;5071148;28;20539;-77
2022/10/29 06:58:36;;;;;;;13.93;8.90;;;;;;;;;;5071147;28;20436;-77
2022/10/29 07:01:04;;;;;;;10.13;8.93;;;;;;;;;;5070464;28;20933;-76
2022/10/29 07:03:31;;;;;;;8.77;7.20;;;;;;;;;;5070106;28;20488;-78
2022/10/29 07:05:58;;;;;;;13.53;8.10;;;;;;;;;;5070849;28;20440;-77
2022/10/29 07:08:27;;;;;;;11.23;7.63;;;;;;;;;;5070703;28;20948;-77
2022/10/29 07:10:56;;;;;;;10.77;7.90;;;;;;;;;;5082782;28;20543;-77
2022/10/29 07:13:23;;;;;;;12.07;8.50;;;;;;;;;;5072785;28;20436;-78
2022/10/29 07:15:50;;;;;;;13.00;8.00;;;;;;;;;;5072295;28;20437;-77
2022/10/29 07:18:17;;;;;;;11.37;8.80;;;;;;;;;;5074159;28;20489;-78
2022/10/29 07:20:45;;;;;;;15.33;8.27;;;;;;;;;;5072115;28;20928;-77
2022/10/29 07:23:12;;;;;;;12.90;8.03;;;;;;;;;;5070964;28;20476;-76
2022/10/29 07:25:40;;;;;;;11.83;8.33;;;;;;;;;;5071056;28;20441;-77
2022/10/29 07:28:11;;;;;;;9.43;8.30;;;;;;;;;;5067267;28;20507;-77
2022/10/29 07:30:38;;;;;;;15.07;8.50;;;;;;;;;;5059247;28;20442;-78
2022/10/29 07:33:05;;;;;;;15.30;8.83;;;;;;;;;;5063841;28;20476;-76
2022/10/29 07:35:33;;;;;;;12.50;9.30;;;;;;;;;;5064479;28;20437;-76
2022/10/29 07:38:00;;;;;;;11.73;8.47;;;;;;;;;;5062691;28;20442;-78
2022/10/29 07:40:27;;;;;;;11.97;8.60;;;;;;;;;;5066966;28;20473;-77
2022/10/29 07:42:54;;;;;;;13.77;9.77;;;;;;;;;;5070492;28;20515;-77
2022/10/29 07:45:23;;;;;;;17.47;9.37;;;;;;;;;;5063459;28;20448;-77
2022/10/29 07:47:58;;;;;;;17.73;8.47;;;;;;;;;;5071004;28;20445;-78
2022/10/29 07:50:25;;;;;;;13.40;9.03;;;;;;;;;;5050685;28;20428;-77
2022/10/29 07:52:52;;;;;;;12.77;8.70;;;;;;;;;;5049556;28;20960;-77
2022/10/29 07:55:19;;;;;;;9.17;7.77;;;;;;;;;;5059568;28;20440;-78
2022/10/29 07:57:46;;;;;;;10.60;8.73;;;;;;;;;;5070268;28;20449;-78
2022/10/29 08:00:14;;;;;;;10.10;8.10;;;;;;;;;;5070695;28;20445;-77
2022/10/29 08:02:42;;;;;;;13.07;8.90;;;;;;;;;;5069972;28;20491;-78
2022/10/29 08:05:09;;;;;;;11.53;7.57;;;;;;;;;;5070739;28;20827;-77
2022/10/29 08:07:36;;;;;;;12.60;8.20;;;;;;;;;;5070881;28;20786;-78
2022/10/29 08:10:03;;;;;;;14.23;8.37;;;;;;;;;;5071184;28;20814;-77
2022/10/29 08:12:30;;;;;;;13.00;8.93;;;;;;;;;;5070424;28;20461;-75
2022/10/29 08:14:58;;;;;;;21.07;9.47;;;;;;;;;;5086146;28;20451;-76
2022/10/29 08:17:25;;;;;;;23.73;11.07;;;;;;;;;;5089379;28;20443;-77
2022/10/29 08:19:53;;;;;;;24.60;10.27;;;;;;;;;;5088873;28;20452;-76
2022/10/29 08:22:20;;;;;;;15.17;8.73;;;;;;;;;;5079320;28;20840;-77
2022/10/29 08:24:47;;;;;;;21.57;8.40;;;;;;;;;;5068078;28;20475;-76
2022/10/29 08:27:14;;;;;;;16.30;8.53;;;;;;;;;;5069188;28;20846;-77
2022/10/29 08:29:41;;;;;;;17.90;9.03;;;;;;;;;;5070429;28;20812;-75
2022/10/29 08:32:08;;;;;;;12.53;7.70;;;;;;;;;;5070317;28;20468;-78
2022/10/29 08:34:35;;;;;;;11.80;7.13;;;;;;;;;;5070481;28;20940;-77
2022/10/29 08:37:04;;;;;;;11.10;7.60;;;;;;;;;;5070385;28;20440;-77
2022/10/29 08:39:31;;;;;;;11.00;7.93;;;;;;;;;;5071576;28;20451;-77
2022/10/29 08:42:02;;;;;;;13.57;7.43;;;;;;;;;;5070630;28;20480;-78
2022/10/29 08:44:44;;;;;;;13.03;7.30;;;;;;;;;;5070138;28;20485;-77
2022/10/29 08:47:15;;;;;;;12.67;8.23;;;;;;;;;;5053425;28;20461;-77
2022/10/29 08:49:44;;;;;;;9.27;8.37;;;;;;;;;;5079753;28;20421;-77
2022/10/29 08:52:18;;;;;;;11.20;7.70;;;;;;;;;;5095876;28;20461;-77
2022/10/29 08:54:48;;;;;;;12.93;8.60;;;;;;;;;;5096233;28;20420;-75
2022/10/29 08:57:16;;;;;;;10.80;7.90;;;;;;;;;;5095488;28;20459;-76
2022/10/29 08:59:46;;;;;;;10.20;7.13;;;;;;;;;;5095745;28;20435;-75
2022/10/29 09:02:16;;;;;;;10.73;7.27;;;;;;;;;;5077118;28;20467;-77
2022/10/29 09:04:43;;;;;;;11.83;7.87;;;;;;;;;;5074967;28;20471;-76
2022/10/29 09:07:19;;;;;;;9.97;7.40;;;;;;;;;;5070670;28;20447;-78
2022/10/29 09:09:47;;;;;;;10.80;7.03;;;;;;;;;;5070600;28;20456;-77
2022/10/29 09:12:35;;;;;;;16.97;7.57;;;;;;;;;;5076543;28;20468;-78
2022/10/29 09:15:18;;;;;;;11.00;6.80;;;;;;;;;;5068165;28;20444;-79
2022/10/29 09:17:48;;;;;;;9.40;6.43;;;;;;;;;;5075943;28;20555;-77
2022/10/29 09:20:23;;;;;;;9.70;5.70;;;;;;;;;;5075037;28;20456;-78
2022/10/29 09:22:55;;;;;;;10.57;6.13;;;;;;;;;;5074147;28;20537;-77
2022/10/29 09:25:24;;;;;;;8.23;6.17;;;;;;;;;;5075146;28;20451;-78
2022/10/29 09:28:00;;;;;;;8.10;5.80;;;;;;;;;;5074739;28;20436;-76
2022/10/29 09:30:30;;;;;;;11.43;6.43;;;;;;;;;;5074475;28;20527;-77
2022/10/29 09:33:00;;;;;;;10.43;5.50;;;;;;;;;;5073222;28;20491;-76
2022/10/29 09:35:35;;;;;;;10.50;6.20;;;;;;;;;;5075253;28;20435;-78
2022/10/29 09:38:07;;;;;;;7.63;5.83;;;;;;;;;;5074005;28;20825;-78
2022/10/29 09:40:36;;;;;;;10.10;6.80;;;;;;;;;;5076072;28;20476;-77
2022/10/29 09:43:07;;;;;;;10.43;6.40;;;;;;;;;;5078568;28;20488;-79
2022/10/29 09:45:42;;;;;;;10.37;6.33;;;;;;;;;;5080673;28;20449;-79
2022/10/29 09:48:13;;;;;;;10.83;6.50;;;;;;;;;;5081695;28;20481;-79
2022/10/29 09:50:47;;;;;;;10.30;6.70;;;;;;;;;;5080891;28;20479;-76
2022/10/29 09:53:15;;;;;;;9.53;6.00;;;;;;;;;;5076031;28;20543;-77
2022/10/29 09:55:43;;;;;;;10.67;6.53;;;;;;;;;;5068284;28;20453;-76
2022/10/29 09:58:14;;;;;;;8.90;5.80;;;;;;;;;;5072145;28;20445;-78
2022/10/29 10:00:41;;;;;;;15.97;6.27;;;;;;;;;;5073611;28;20425;-76
2022/10/29 10:03:12;;;;;;;9.43;5.20;;;;;;;;;;5073385;28;20476;-77
2022/10/29 10:05:56;;;;;;;10.50;6.53;;;;;;;;;;5073131;28;20433;-75
2022/10/29 10:08:25;;;;;;;10.70;5.60;;;;;;;;;;5073275;28;20451;-77
2022/10/29 10:10:52;;;;;;;10.77;5.97;;;;;;;;;;5072329;28;20449;-76
2022/10/29 10:13:20;;;;;;;15.80;14.20;;;;;;;;;;5071467;28;20456;-76
2022/10/29 10:15:50;;;;;;;9.23;5.57;;;;;;;;;;5073299;28;20449;-76
2022/10/29 10:18:19;;;;;;;14.20;6.00;;;;;;;;;;5072588;28;20534;-77
2022/10/29 10:20:47;;;;;;;7.00;5.60;;;;;;;;;;5072900;28;20445;-76
2022/10/29 10:23:22;;;;;;;9.87;5.47;;;;;;;;;;5071780;28;20999;-77
2022/10/29 10:25:51;;;;;;;10.70;5.57;;;;;;;;;;5073018;28;20451;-78
2022/10/29 10:28:19;;;;;;;13.87;6.20;;;;;;;;;;5072489;28;20456;-78
2022/10/29 10:30:47;;;;;;;8.27;5.30;;;;;;;;;;5072741;28;20955;-77
2022/10/29 10:33:23;;;;;;;9.17;4.93;;;;;;;;;;5071599;28;20483;-77
2022/10/29 10:35:50;;;;;;;6.70;5.17;;;;;;;;;;5073372;28;20436;-77
2022/10/29 10:38:17;;;;;;;15.63;6.13;;;;;;;;;;5073060;28;20440;-77
2022/10/29 10:40:45;;;;;;;10.30;5.43;;;;;;;;;;5072007;28;20445;-77
2022/10/29 10:43:20;;;;;;;7.90;5.23;;;;;;;;;;5071208;28;20477;-77
2022/10/29 10:45:52;;;;;;;14.57;5.77;;;;;;;;;;5051489;28;20891;-78
2022/10/29 10:48:19;;;;;;;10.17;6.80;;;;;;;;;;5051515;28;20449;-77
2022/10/29 10:50:47;;;;;;;9.97;5.80;;;;;;;;;;5051301;28;20446;-76
2022/10/29 10:53:17;;;;;;;12.20;5.37;;;;;;;;;;5050721;28;20552;-78
2022/10/29 10:55:47;;;;;;;5.80;5.30;;;;;;;;;;5052743;28;20452;-76
2022/10/29 10:58:18;;;;;;;9.30;5.30;;;;;;;;;;5052274;28;20430;-77
2022/10/29 11:00:48;;;;;;;8.20;5.67;;;;;;;;;;5051960;28;20441;-77
2022/10/29 11:03:18;;;;;;;12.37;6.10;;;;;;;;;;5058281;28;20863;-77
2022/10/29 11:05:48;;;;;;;12.20;5.27;;;;;;;;;;5071437;28;20510;-76
2022/10/29 11:08:17;;;;;;;6.73;5.10;;;;;;;;;;5070845;28;20441;-77
2022/10/29 11:10:47;;;;;;;9.37;6.10;;;;;;;;;;5071042;28;20444;-77
2022/10/29 11:13:16;;;;;;;8.93;5.60;;;;;;;;;;5070075;28;20448;-77
2022/10/29 11:15:47;;;;;;;8.67;5.33;;;;;;;;;;5072775;28;20440;-77
2022/10/29 11:18:19;;;;;;;8.67;5.40;;;;;;;;;;5070993;28;20425;-77
2022/10/29 11:20:48;;;;;;;7.27;5.60;;;;;;;;;;5070725;28;20433;-77
2022/10/29 11:23:26;;;;;;;10.60;5.47;;;;;;;;;;5070689;28;20495;-77
2022/10/29 11:25:55;;;;;;;10.63;5.20;;;;;;;;;;5072453;28;20444;-77
2022/10/29 11:28:26;;;;;;;9.03;5.77;;;;;;;;;;5080364;28;20456;-78
2022/10/29 11:30:56;;;;;;;10.83;5.87;;;;;;;;;;5084927;28;20459;-76
2022/10/29 11:33:27;;;;;;;9.77;5.50;;;;;;;;;;5086475;28;20449;-76
2022/10/29 11:35:56;;;;;;;8.87;5.70;;;;;;;;;;5087223;28;20452;-77
2022/10/29 11:38:25;;;;;;;8.80;5.40;;;;;;;;;;5086983;28;20498;-78
2022/10/29 11:40:54;;;;;;;8.83;4.90;;;;;;;;;;5076681;28;20494;-77
2022/10/29 11:43:21;;;;;;;8.30;5.40;;;;;;;;;;5072206;28;20491;-76
2022/10/29 11:45:58;;;;;;;7.60;5.40;;;;;;;;;;5073022;28;20456;-77
2022/10/29 11:48:33;;;;;;;7.80;5.77;;;;;;;;;;5072088;28;20475;-79
2022/10/29 11:51:13;;;;;;;10.60;5.70;;;;;;;;;;5072591;28;20448;-78
2022/10/29 11:53:52;;;;;;;7.70;5.53;;;;;;;;;;5067801;28;20467;-78
2022/10/29 11:56:23;;;;;;;10.00;5.47;;;;;;;;;;5073972;28;20459;-77
2022/10/29 11:58:54;;;;;;;11.53;5.70;;;;;;;;;;5072551;28;20448;-77
2022/10/29 12:01:26;;;;;;;8.33;5.10;;;;;;;;;;5073558;28;20460;-78
2022/10/29 12:04:09;;;;;;;7.33;5.40;;;;;;;;;;5070823;28;20480;-78
2022/10/29 12:06:40;;;;;;;12.13;5.10;;;;;;;;;;5070647;28;20440;-77
2022/10/29 12:09:28;;;;;;;13.23;5.57;;;;;;;;;;5071214;28;20444;-77
2022/10/29 12:11:59;;;;;;;11.27;5.83;;;;;;;;;;5071419;28;20476;-76
2022/10/29 12:14:32;;;;;;;10.47;5.47;;;;;;;;;;5070150;28;20441;-77
2022/10/29 12:17:02;;;;;;;8.67;5.23;;;;;;;;;;5070721;28;20449;-77
2022/10/29 12:19:36;;;;;;;9.97;5.43;;;;;;;;;;5071665;28;20808;-78
2022/10/29 12:22:08;;;;;;;8.97;6.27;;;;;;;;;;5070674;28;20552;-77
2022/10/29 12:24:46;;;;;;;8.80;5.80;;;;;;;;;;5070125;28;20487;-77
2022/10/29 12:27:17;;;;;;;11.80;6.13;;;;;;;;;;5070853;28;20452;-76
2022/10/29 12:29:49;;;;;;;10.23;6.03;;;;;;;;;;5072052;28;20944;-76
2022/10/29 12:32:21;;;;;;;7.77;6.00;;;;;;;;;;5072999;28;21031;-77
2022/10/29 12:34:51;;;;;;;12.17;5.80;;;;;;;;;;5071125;28;20479;-75
2022/10/29 12:37:22;;;;;;;10.43;5.73;;;;;;;;;;5071861;28;20436;-77
2022/10/29 12:39:51;;;;;;;9.90;6.10;;;;;;;;;;5073408;28;20445;-77
2022/10/29 12:42:22;;;;;;;10.33;6.00;;;;;;;;;;5072010;28;20908;-77
2022/10/29 12:44:56;;;;;;;14.43;8.53;;;;;;;;;;5073023;28;20464;-78
2022/10/29 12:47:26;;;;;;;12.40;7.00;;;;;;;;;;5075365;28;20452;-77
2022/10/29 12:50:02;;;;;;;10.70;5.77;;;;;;;;;;5074185;28;20452;-76
2022/10/29 12:52:34;;;;;;;11.30;6.30;;;;;;;;;;5074314;28;20455;-76
2022/10/29 12:55:02;;;;;;;16.13;8.70;;;;;;;;;;5073866;28;20443;-77
2022/10/29 12:57:30;;;;;;;10.33;6.20;;;;;;;;;;5074990;28;20507;-78
2022/10/29 12:59:58;;;;;;;8.17;5.30;;;;;;;;;;5077017;28;20798;-77
2022/10/29 13:02:28;;;;;;;8.90;5.83;;;;;;;;;;5079083;28;20464;-77
2022/10/29 13:05:15;;;;;;;16.50;8.20;;;;;;;;;;5073275;28;20472;-78
2022/10/29 13:07:57;;;;;;;12.23;6.57;;;;;;;;;;5073823;28;20452;-76
2022/10/29 13:10:42;;;;;;;11.70;5.97;;;;;;;;;;5073094;28;20982;-77
2022/10/29 13:13:28;;;;;;;6.93;5.37;;;;;;;;;;5060971;28;20465;-78
2022/10/29 13:16:01;;;;;;;11.87;6.27;;;;;;;;;;5053897;28;20481;-76
2022/10/29 13:18:29;;;;;;;7.80;6.40;;;;;;;;;;5053974;28;20455;-77
2022/10/29 13:20:56;;;;;;;12.20;6.43;;;;;;;;;;5053613;28;20457;-78
2022/10/29 13:23:34;;;;;;;12.17;6.90;;;;;;;;;;5052670;28;20454;-77
2022/10/29 13:26:02;;;;;;;11.00;6.83;;;;;;;;;;5053104;28;20473;-77
2022/10/29 13:28:48;;;;;;;11.60;6.63;;;;;;;;;;5053439;28;20827;-77
2022/10/29 13:31:33;;;;;;;13.73;6.50;;;;;;;;;;5053102;28;20511;-77
2022/10/29 13:34:02;;;;;;;35.27;31.93;;;;;;;;;;5052594;28;20941;-78
2022/10/29 13:36:38;;;;;;;14.30;11.80;;;;;;;;;;5052461;28;20952;-78
2022/10/29 13:39:18;;;;;;;30.93;27.83;;;;;;;;;;5052967;28;20445;-77
2022/10/29 13:41:49;;;;;;;10.10;6.63;;;;;;;;;;5052984;28;20471;-77
2022/10/29 13:44:17;;;;;;;9.03;6.63;;;;;;;;;;5051946;28;20481;-77
2022/10/29 13:46:47;;;;;;;11.40;7.70;;;;;;;;;;5052163;28;20449;-76
2022/10/29 13:49:18;;;;;;;10.13;7.20;;;;;;;;;;5054196;28;20493;-77
2022/10/29 13:51:53;;;;;;;11.07;7.77;;;;;;;;;;5057605;28;20575;-76
2022/10/29 13:54:24;;;;;;;8.60;7.10;;;;;;;;;;5054124;28;20459;-78
2022/10/29 13:56:53;;;;;;;13.67;7.60;;;;;;;;;;5054062;28;20945;-77
2022/10/29 13:59:23;;;;;;;10.10;7.00;;;;;;;;;;5055059;28;20456;-77
2022/10/29 14:01:56;;;;;;;10.23;6.80;;;;;;;;;;5053489;28;20505;-78
2022/10/29 14:04:27;;;;;;;15.00;7.43;;;;;;;;;;5053803;28;20488;-77
2022/10/29 14:06:55;;;;;;;7.60;6.50;;;;;;;;;;5053569;28;20446;-76
2022/10/29 14:09:23;;;;;;;11.80;7.20;;;;;;;;;;5054350;28;20449;-77
2022/10/29 14:11:55;;;;;;;14.70;7.47;;;;;;;;;;5055288;28;20851;-77
2022/10/29 14:14:27;;;;;;;13.50;9.37;;;;;;;;;;5073144;28;20444;-76
2022/10/29 14:17:10;;;;;;;9.17;8.17;;;;;;;;;;5074601;28;20444;-75
2022/10/29 14:19:38;;;;;;;13.07;8.43;;;;;;;;;;5073847;28;20479;-76
2022/10/29 14:22:15;;;;;;;10.53;6.67;;;;;;;;;;5073614;28;20915;-76
2022/10/29 14:24:42;;;;;;;13.23;7.23;;;;;;;;;;5072874;28;20975;-77
2022/10/29 14:27:14;;;;;;;9.13;7.13;;;;;;;;;;5072879;28;20515;-76
2022/10/29 14:29:41;;;;;;;11.93;7.13;;;;;;;;;;5075276;28;20464;-78
2022/10/29 14:32:08;;;;;;;11.87;7.10;;;;;;;;;;5074791;28;20492;-77
2022/10/29 14:34:35;;;;;;;13.60;7.60;;;;;;;;;;5074403;28;20846;-77
2022/10/29 14:37:06;;;;;;;12.90;8.30;;;;;;;;;;5075265;28;20447;-77
2022/10/29 14:39:35;;;;;;;10.50;7.30;;;;;;;;;;5073883;28;20429;-77
2022/10/29 14:42:02;;;;;;;12.20;7.40;;;;;;;;;;5074542;28;20468;-77
2022/10/29 14:44:31;;;;;;;12.10;6.90;;;;;;;;;;5071106;28;20868;-77
2022/10/29 14:47:01;;;;;;;18.40;8.80;;;;;;;;;;5071333;28;20867;-77